sensor_id;sensor_type;location;lat;lon;timestamp;pressure;altitude;pressure_sealevel;temperature;humidity
74615;BME280;63121;51.458;-0.110;2023-04-03T00:00:37;102980.56;;;9.36;52.93
74615;BME280;63121;51.458;-0.110;2023-04-03T00:03:03;102975.25;;;8.78;54.40
74615;BME280;63121;51.458;-0.110;2023-04-03T00:05:28;102973.56;;;8.52;55.21
74615;BME280;63121;51.458;-0.110;2023-04-03T00:07:57;102977.78;;;8.76;54.69
74615;BME280;63121;51.458;-0.110;2023-04-03T00:10:27;102968.88;;;8.92;54.29
74615;BME280;63121;51.458;-0.110;2023-04-03T00:12:52;102966.31;;;8.93;54.41
74615;BME280;63121;51.458;-0.110;2023-04-03T00:15:18;102972.50;;;8.46;55.38
74615;BME280;63121;51.458;-0.110;2023-04-03T00:17:43;102963.91;;;8.71;55.00
74615;BME280;63121;51.458;-0.110;2023-04-03T00:20:12;102972.03;;;8.33;56.39
74615;BME280;63121;51.458;-0.110;2023-04-03T00:22:40;102965.69;;;8.24;56.37
74615;BME280;63121;51.458;-0.110;2023-04-03T00:25:06;102969.19;;;8.26;56.42
74615;BME280;63121;51.458;-0.110;2023-04-03T00:27:31;102966.31;;;8.17;56.71
74615;BME280;63121;51.458;-0.110;2023-04-03T00:29:57;102966.16;;;8.12;57.33
74615;BME280;63121;51.458;-0.110;2023-04-03T00:32:23;102969.16;;;8.24;57.11
74615;BME280;63121;51.458;-0.110;2023-04-03T00:34:48;102958.09;;;8.03;57.50
74615;BME280;63121;51.458;-0.110;2023-04-03T00:37:14;102967.56;;;8.04;57.39
74615;BME280;63121;51.458;-0.110;2023-04-03T00:39:42;102956.09;;;7.71;57.98
74615;BME280;63121;51.458;-0.110;2023-04-03T00:42:10;102960.19;;;7.89;57.69
74615;BME280;63121;51.458;-0.110;2023-04-03T00:47:05;102957.03;;;7.73;58.24
74615;BME280;63121;51.458;-0.110;2023-04-03T00:49:31;102955.81;;;8.10;57.21
74615;BME280;63121;51.458;-0.110;2023-04-03T00:51:57;102962.94;;;7.71;58.79
74615;BME280;63121;51.458;-0.110;2023-04-03T00:54:23;102958.50;;;7.67;59.03
74615;BME280;63121;51.458;-0.110;2023-04-03T00:56:51;102952.34;;;7.86;58.61
74615;BME280;63121;51.458;-0.110;2023-04-03T00:59:23;102950.13;;;7.95;57.85
74615;BME280;63121;51.458;-0.110;2023-04-03T01:01:53;102951.56;;;7.64;58.65
74615;BME280;63121;51.458;-0.110;2023-04-03T01:04:27;102947.72;;;7.53;59.48
74615;BME280;63121;51.458;-0.110;2023-04-03T01:06:56;102951.47;;;7.85;58.24
74615;BME280;63121;51.458;-0.110;2023-04-03T01:09:23;102949.94;;;7.66;58.75
74615;BME280;63121;51.458;-0.110;2023-04-03T01:11:49;102947.88;;;7.80;58.27
74615;BME280;63121;51.458;-0.110;2023-04-03T01:14:14;102946.31;;;7.61;59.13
74615;BME280;63121;51.458;-0.110;2023-04-03T01:16:40;102946.41;;;7.40;59.68
74615;BME280;63121;51.458;-0.110;2023-04-03T01:19:08;102955.13;;;7.45;59.29
74615;BME280;63121;51.458;-0.110;2023-04-03T01:24:36;102948.69;;;7.57;59.25
74615;BME280;63121;51.458;-0.110;2023-04-03T01:27:07;102946.31;;;7.61;58.74
74615;BME280;63121;51.458;-0.110;2023-04-03T01:29:34;102947.66;;;7.74;58.44
74615;BME280;63121;51.458;-0.110;2023-04-03T01:32:01;102934.50;;;7.90;58.40
74615;BME280;63121;51.458;-0.110;2023-04-03T01:34:28;102940.03;;;7.77;58.52
74615;BME280;63121;51.458;-0.110;2023-04-03T01:36:54;102944.47;;;7.81;58.63
74615;BME280;63121;51.458;-0.110;2023-04-03T01:39:20;102942.72;;;7.80;58.73
74615;BME280;63121;51.458;-0.110;2023-04-03T01:41:46;102937.63;;;7.82;58.49
74615;BME280;63121;51.458;-0.110;2023-04-03T01:44:12;102932.69;;;7.88;58.40
74615;BME280;63121;51.458;-0.110;2023-04-03T01:46:38;102940.81;;;7.52;59.45
74615;BME280;63121;51.458;-0.110;2023-04-03T01:49:04;102929.97;;;7.83;58.55
74615;BME280;63121;51.458;-0.110;2023-04-03T01:51:30;102939.66;;;7.66;58.82
74615;BME280;63121;51.458;-0.110;2023-04-03T01:53:56;102929.47;;;7.69;59.35
74615;BME280;63121;51.458;-0.110;2023-04-03T01:56:21;102918.75;;;7.81;59.08
74615;BME280;63121;51.458;-0.110;2023-04-03T01:58:47;102936.44;;;7.27;59.96
74615;BME280;63121;51.458;-0.110;2023-04-03T02:01:13;102921.13;;;7.52;59.55
74615;BME280;63121;51.458;-0.110;2023-04-03T02:03:38;102932.00;;;7.45;60.08
74615;BME280;63121;51.458;-0.110;2023-04-03T02:06:04;102928.22;;;7.36;60.37
74615;BME280;63121;51.458;-0.110;2023-04-03T02:08:29;102922.09;;;7.32;59.99
74615;BME280;63121;51.458;-0.110;2023-04-03T02:10:55;102921.22;;;7.09;60.87
74615;BME280;63121;51.458;-0.110;2023-04-03T02:13:20;102916.28;;;6.92;60.97
74615;BME280;63121;51.458;-0.110;2023-04-03T02:15:46;102927.78;;;7.23;60.48
74615;BME280;63121;51.458;-0.110;2023-04-03T02:18:15;102924.84;;;7.14;60.77
74615;BME280;63121;51.458;-0.110;2023-04-03T02:20:41;102927.75;;;7.46;59.99
74615;BME280;63121;51.458;-0.110;2023-04-03T02:23:06;102920.09;;;7.25;60.30
74615;BME280;63121;51.458;-0.110;2023-04-03T02:25:42;102929.91;;;6.90;61.00
74615;BME280;63121;51.458;-0.110;2023-04-03T02:28:07;102932.28;;;7.08;60.73
74615;BME280;63121;51.458;-0.110;2023-04-03T02:30:33;102934.16;;;7.12;60.46
74615;BME280;63121;51.458;-0.110;2023-04-03T02:32:58;102923.03;;;7.11;60.37
74615;BME280;63121;51.458;-0.110;2023-04-03T02:35:24;102924.91;;;7.16;60.86
74615;BME280;63121;51.458;-0.110;2023-04-03T02:37:49;102919.97;;;6.99;61.38
74615;BME280;63121;51.458;-0.110;2023-04-03T02:40:16;102917.03;;;7.11;61.12
74615;BME280;63121;51.458;-0.110;2023-04-03T02:42:42;102925.03;;;6.98;61.25
74615;BME280;63121;51.458;-0.110;2023-04-03T02:45:10;102916.72;;;7.03;61.16
74615;BME280;63121;51.458;-0.110;2023-04-03T02:47:35;102917.47;;;7.01;61.36
74615;BME280;63121;51.458;-0.110;2023-04-03T02:50:01;102918.47;;;7.04;60.81
74615;BME280;63121;51.458;-0.110;2023-04-03T02:52:27;102914.97;;;7.25;60.16
74615;BME280;63121;51.458;-0.110;2023-04-03T02:54:55;102916.25;;;7.36;60.02
74615;BME280;63121;51.458;-0.110;2023-04-03T02:57:20;102919.00;;;7.41;59.78
74615;BME280;63121;51.458;-0.110;2023-04-03T02:59:46;102920.97;;;7.48;59.90
74615;BME280;63121;51.458;-0.110;2023-04-03T03:02:11;102923.66;;;7.28;60.02
74615;BME280;63121;51.458;-0.110;2023-04-03T03:04:39;102915.63;;;7.19;60.87
74615;BME280;63121;51.458;-0.110;2023-04-03T03:07:05;102920.75;;;7.19;60.98
74615;BME280;63121;51.458;-0.110;2023-04-03T03:09:30;102919.69;;;7.14;60.55
74615;BME280;63121;51.458;-0.110;2023-04-03T03:11:56;102911.13;;;7.36;60.22
74615;BME280;63121;51.458;-0.110;2023-04-03T03:14:23;102909.25;;;7.32;60.26
74615;BME280;63121;51.458;-0.110;2023-04-03T03:16:48;102906.06;;;7.15;60.71
74615;BME280;63121;51.458;-0.110;2023-04-03T03:19:14;102905.06;;;7.11;60.74
74615;BME280;63121;51.458;-0.110;2023-04-03T03:21:39;102909.44;;;6.91;61.46
74615;BME280;63121;51.458;-0.110;2023-04-03T03:24:05;102906.91;;;6.93;61.17
74615;BME280;63121;51.458;-0.110;2023-04-03T03:26:31;102904.59;;;7.22;60.93
74615;BME280;63121;51.458;-0.110;2023-04-03T03:28:56;102908.84;;;6.99;61.05
74615;BME280;63121;51.458;-0.110;2023-04-03T03:31:22;102912.50;;;7.05;60.90
74615;BME280;63121;51.458;-0.110;2023-04-03T03:33:47;102907.72;;;7.15;61.17
74615;BME280;63121;51.458;-0.110;2023-04-03T03:36:13;102910.44;;;7.18;60.67
74615;BME280;63121;51.458;-0.110;2023-04-03T03:38:38;102908.56;;;7.13;60.49
74615;BME280;63121;51.458;-0.110;2023-04-03T03:41:04;102912.13;;;7.17;60.44
74615;BME280;63121;51.458;-0.110;2023-04-03T03:43:30;102915.16;;;7.07;61.28
74615;BME280;63121;51.458;-0.110;2023-04-03T03:45:56;102913.81;;;6.94;61.24
74615;BME280;63121;51.458;-0.110;2023-04-03T03:48:21;102910.06;;;6.86;61.41
74615;BME280;63121;51.458;-0.110;2023-04-03T03:50:48;102904.09;;;6.87;61.54
74615;BME280;63121;51.458;-0.110;2023-04-03T03:53:14;102901.44;;;7.06;60.73
74615;BME280;63121;51.458;-0.110;2023-04-03T03:55:40;102904.41;;;6.95;61.25
74615;BME280;63121;51.458;-0.110;2023-04-03T03:58:05;102901.91;;;6.96;61.17
74615;BME280;63121;51.458;-0.110;2023-04-03T04:00:31;102910.72;;;7.03;60.91
74615;BME280;63121;51.458;-0.110;2023-04-03T04:02:56;102907.59;;;6.89;61.37
74615;BME280;63121;51.458;-0.110;2023-04-03T04:05:22;102907.84;;;6.95;61.08
74615;BME280;63121;51.458;-0.110;2023-04-03T04:07:47;102908.66;;;6.94;61.29
74615;BME280;63121;51.458;-0.110;2023-04-03T04:10:13;102902.44;;;6.89;61.96
74615;BME280;63121;51.458;-0.110;2023-04-03T04:12:38;102903.53;;;6.94;61.64
74615;BME280;63121;51.458;-0.110;2023-04-03T04:15:04;102897.25;;;7.08;61.28
74615;BME280;63121;51.458;-0.110;2023-04-03T04:17:30;102901.66;;;7.12;60.82
74615;BME280;63121;51.458;-0.110;2023-04-03T04:20:02;102901.63;;;7.11;60.66
74615;BME280;63121;51.458;-0.110;2023-04-03T04:22:27;102900.97;;;6.94;61.63
74615;BME280;63121;51.458;-0.110;2023-04-03T04:24:53;102905.69;;;7.06;61.53
74615;BME280;63121;51.458;-0.110;2023-04-03T04:27:19;102907.50;;;7.31;60.77
74615;BME280;63121;51.458;-0.110;2023-04-03T04:29:50;102902.78;;;7.19;60.73
74615;BME280;63121;51.458;-0.110;2023-04-03T04:32:15;102913.56;;;7.33;60.72
74615;BME280;63121;51.458;-0.110;2023-04-03T04:34:41;102901.72;;;7.37;60.51
74615;BME280;63121;51.458;-0.110;2023-04-03T04:37:06;102911.38;;;7.44;59.91
74615;BME280;63121;51.458;-0.110;2023-04-03T04:39:32;102915.25;;;7.55;60.00
74615;BME280;63121;51.458;-0.110;2023-04-03T04:41:57;102902.72;;;7.40;60.23
74615;BME280;63121;51.458;-0.110;2023-04-03T04:44:22;102902.53;;;7.36;60.42
74615;BME280;63121;51.458;-0.110;2023-04-03T04:46:48;102903.69;;;7.44;60.21
74615;BME280;63121;51.458;-0.110;2023-04-03T04:49:13;102901.59;;;7.33;60.85
74615;BME280;63121;51.458;-0.110;2023-04-03T04:51:38;102894.19;;;7.19;60.66
74615;BME280;63121;51.458;-0.110;2023-04-03T04:54:04;102904.28;;;7.37;60.61
74615;BME280;63121;51.458;-0.110;2023-04-03T04:56:31;102909.88;;;7.49;60.27
74615;BME280;63121;51.458;-0.110;2023-04-03T04:58:56;102903.97;;;7.51;59.77
74615;BME280;63121;51.458;-0.110;2023-04-03T05:01:22;102912.16;;;7.41;60.05
74615;BME280;63121;51.458;-0.110;2023-04-03T05:03:47;102907.66;;;7.58;59.98
74615;BME280;63121;51.458;-0.110;2023-04-03T05:06:13;102905.22;;;7.63;59.40
74615;BME280;63121;51.458;-0.110;2023-04-03T05:08:38;102904.03;;;7.77;59.06
74615;BME280;63121;51.458;-0.110;2023-04-03T05:11:04;102907.59;;;7.81;59.41
74615;BME280;63121;51.458;-0.110;2023-04-03T05:13:29;102913.22;;;7.94;58.98
74615;BME280;63121;51.458;-0.110;2023-04-03T05:15:55;102913.28;;;7.96;58.52
74615;BME280;63121;51.458;-0.110;2023-04-03T05:18:20;102918.69;;;7.56;59.87
74615;BME280;63121;51.458;-0.110;2023-04-03T05:20:48;102917.19;;;7.85;58.97
74615;BME280;63121;51.458;-0.110;2023-04-03T05:23:17;102912.03;;;7.85;59.45
74615;BME280;63121;51.458;-0.110;2023-04-03T05:25:42;102907.72;;;8.09;58.41
74615;BME280;63121;51.458;-0.110;2023-04-03T05:28:10;102912.56;;;8.24;57.99
74615;BME280;63121;51.458;-0.110;2023-04-03T05:30:35;102911.09;;;8.32;57.43
74615;BME280;63121;51.458;-0.110;2023-04-03T05:33:10;102915.47;;;8.35;57.59
74615;BME280;63121;51.458;-0.110;2023-04-03T05:35:37;102916.19;;;8.31;57.53
74615;BME280;63121;51.458;-0.110;2023-04-03T05:38:05;102918.28;;;8.41;57.88
74615;BME280;63121;51.458;-0.110;2023-04-03T05:40:31;102915.72;;;8.41;57.23
74615;BME280;63121;51.458;-0.110;2023-04-03T05:42:56;102922.31;;;8.34;57.83
74615;BME280;63121;51.458;-0.110;2023-04-03T05:45:22;102922.38;;;8.36;57.84
74615;BME280;63121;51.458;-0.110;2023-04-03T05:47:47;102923.44;;;8.41;57.42
74615;BME280;63121;51.458;-0.110;2023-04-03T05:50:13;102929.28;;;8.37;58.08
74615;BME280;63121;51.458;-0.110;2023-04-03T05:52:43;102925.59;;;8.54;57.02
74615;BME280;63121;51.458;-0.110;2023-04-03T05:55:09;102924.88;;;8.34;57.73
74615;BME280;63121;51.458;-0.110;2023-04-03T05:57:35;102915.88;;;8.46;57.21
74615;BME280;63121;51.458;-0.110;2023-04-03T06:00:00;102921.81;;;8.45;57.28
74615;BME280;63121;51.458;-0.110;2023-04-03T06:02:29;102913.56;;;8.29;58.05
74615;BME280;63121;51.458;-0.110;2023-04-03T06:04:54;102923.34;;;8.40;57.88
74615;BME280;63121;51.458;-0.110;2023-04-03T06:07:22;102929.81;;;8.52;57.35
74615;BME280;63121;51.458;-0.110;2023-04-03T06:09:49;102920.44;;;8.54;57.78
74615;BME280;63121;51.458;-0.110;2023-04-03T06:12:14;102925.09;;;8.66;57.00
74615;BME280;63121;51.458;-0.110;2023-04-03T06:14:40;102919.19;;;8.69;56.97
74615;BME280;63121;51.458;-0.110;2023-04-03T06:17:06;102926.66;;;8.88;56.36
74615;BME280;63121;51.458;-0.110;2023-04-03T06:19:33;102921.19;;;8.78;57.01
74615;BME280;63121;51.458;-0.110;2023-04-03T06:21:59;102924.03;;;8.60;57.18
74615;BME280;63121;51.458;-0.110;2023-04-03T06:24:24;102925.53;;;8.53;57.72
74615;BME280;63121;51.458;-0.110;2023-04-03T06:26:51;102930.81;;;8.58;57.49
74615;BME280;63121;51.458;-0.110;2023-04-03T06:29:20;102923.41;;;8.67;57.19
74615;BME280;63121;51.458;-0.110;2023-04-03T06:31:46;102926.66;;;8.61;57.58
74615;BME280;63121;51.458;-0.110;2023-04-03T06:34:14;102931.44;;;8.76;57.13
74615;BME280;63121;51.458;-0.110;2023-04-03T06:36:40;102927.41;;;8.84;57.31
74615;BME280;63121;51.458;-0.110;2023-04-03T06:39:06;102930.25;;;8.93;56.79
74615;BME280;63121;51.458;-0.110;2023-04-03T06:41:32;102939.94;;;8.73;57.51
74615;BME280;63121;51.458;-0.110;2023-04-03T06:43:57;102947.34;;;8.90;56.70
74615;BME280;63121;51.458;-0.110;2023-04-03T06:46:25;102939.41;;;9.11;56.39
74615;BME280;63121;51.458;-0.110;2023-04-03T06:48:51;102933.84;;;9.27;56.13
74615;BME280;63121;51.458;-0.110;2023-04-03T06:51:25;102933.00;;;9.27;56.08
74615;BME280;63121;51.458;-0.110;2023-04-03T06:53:53;102933.44;;;9.42;55.58
74615;BME280;63121;51.458;-0.110;2023-04-03T06:56:20;102931.69;;;9.70;54.80
74615;BME280;63121;51.458;-0.110;2023-04-03T06:58:45;102932.53;;;9.70;55.20
74615;BME280;63121;51.458;-0.110;2023-04-03T07:01:13;102935.81;;;9.65;54.83
74615;BME280;63121;51.458;-0.110;2023-04-03T07:03:39;102936.00;;;9.42;55.58
74615;BME280;63121;51.458;-0.110;2023-04-03T07:06:06;102939.25;;;9.35;56.23
74615;BME280;63121;51.458;-0.110;2023-04-03T07:08:41;102941.59;;;9.56;55.37
74615;BME280;63121;51.458;-0.110;2023-04-03T07:11:08;102939.72;;;9.82;54.88
74615;BME280;63121;51.458;-0.110;2023-04-03T07:13:37;102932.53;;;9.70;55.19
74615;BME280;63121;51.458;-0.110;2023-04-03T07:16:03;102935.66;;;9.89;54.71
74615;BME280;63121;51.458;-0.110;2023-04-03T07:18:31;102935.47;;;9.83;54.99
74615;BME280;63121;51.458;-0.110;2023-04-03T07:20:56;102937.03;;;10.09;54.21
74615;BME280;63121;51.458;-0.110;2023-04-03T07:23:22;102936.84;;;10.02;54.37
74615;BME280;63121;51.458;-0.110;2023-04-03T07:25:50;102929.97;;;10.34;53.61
74615;BME280;63121;51.458;-0.110;2023-04-03T07:28:17;102931.09;;;10.80;52.39
74615;BME280;63121;51.458;-0.110;2023-04-03T07:30:43;102932.53;;;10.69;53.21
74615;BME280;63121;51.458;-0.110;2023-04-03T07:33:12;102931.69;;;10.33;53.37
74615;BME280;63121;51.458;-0.110;2023-04-03T07:35:39;102936.44;;;10.20;54.20
74615;BME280;63121;51.458;-0.110;2023-04-03T07:38:04;102942.81;;;10.01;54.99
74615;BME280;63121;51.458;-0.110;2023-04-03T07:40:30;102934.84;;;10.23;54.40
74615;BME280;63121;51.458;-0.110;2023-04-03T07:42:56;102936.50;;;10.21;54.29
74615;BME280;63121;51.458;-0.110;2023-04-03T07:45:22;102940.47;;;10.40;54.25
74615;BME280;63121;51.458;-0.110;2023-04-03T07:47:48;102939.84;;;10.17;54.84
74615;BME280;63121;51.458;-0.110;2023-04-03T07:50:17;102940.78;;;10.54;53.64
74615;BME280;63121;51.458;-0.110;2023-04-03T07:52:43;102931.31;;;10.89;53.45
74615;BME280;63121;51.458;-0.110;2023-04-03T07:55:08;102937.13;;;11.18;52.45
74615;BME280;63121;51.458;-0.110;2023-04-03T07:57:34;102932.91;;;11.22;51.97
74615;BME280;63121;51.458;-0.110;2023-04-03T08:00:00;102938.47;;;11.01;52.70
74615;BME280;63121;51.458;-0.110;2023-04-03T08:02:26;102941.47;;;11.60;51.22
74615;BME280;63121;51.458;-0.110;2023-04-03T08:04:51;102937.59;;;11.83;50.47
74615;BME280;63121;51.458;-0.110;2023-04-03T08:07:17;102936.59;;;11.74;50.92
74615;BME280;63121;51.458;-0.110;2023-04-03T08:09:42;102944.63;;;11.88;50.24
74615;BME280;63121;51.458;-0.110;2023-04-03T08:12:09;102941.53;;;12.08;49.85
74615;BME280;63121;51.458;-0.110;2023-04-03T08:14:37;102939.53;;;11.91;50.77
74615;BME280;63121;51.458;-0.110;2023-04-03T08:17:03;102942.94;;;11.90;50.68
74615;BME280;63121;51.458;-0.110;2023-04-03T08:19:30;102950.31;;;11.72;50.98
74615;BME280;63121;51.458;-0.110;2023-04-03T08:21:56;102948.16;;;11.49;51.87
74615;BME280;63121;51.458;-0.110;2023-04-03T08:24:24;102941.25;;;11.50;52.07
74615;BME280;63121;51.458;-0.110;2023-04-03T08:26:49;102944.41;;;11.35;52.59
74615;BME280;63121;51.458;-0.110;2023-04-03T08:29:15;102954.59;;;10.54;55.22
74615;BME280;63121;51.458;-0.110;2023-04-03T08:31:40;102944.97;;;10.84;55.25
74615;BME280;63121;51.458;-0.110;2023-04-03T08:34:06;102948.53;;;10.89;54.90
74615;BME280;63121;51.458;-0.110;2023-04-03T08:36:31;102950.56;;;11.02;54.54
74615;BME280;63121;51.458;-0.110;2023-04-03T08:38:57;102949.59;;;11.36;54.18
74615;BME280;63121;51.458;-0.110;2023-04-03T08:41:39;102952.06;;;11.30;54.05
74615;BME280;63121;51.458;-0.110;2023-04-03T08:49:56;102945.81;;;11.62;53.14
74615;BME280;63121;51.458;-0.110;2023-04-03T08:54:59;102945.66;;;11.96;52.92
74615;BME280;63121;51.458;-0.110;2023-04-03T08:58:04;102956.13;;;12.03;52.37
74615;BME280;63121;51.458;-0.110;2023-04-03T09:00:24;102949.16;;;11.98;52.49
74615;BME280;63121;51.458;-0.110;2023-04-03T09:02:55;102955.97;;;11.93;52.69
74615;BME280;63121;51.458;-0.110;2023-04-03T09:05:45;102954.22;;;11.92;53.06
74615;BME280;63121;51.458;-0.110;2023-04-03T09:08:24;102951.72;;;11.97;52.66
74615;BME280;63121;51.458;-0.110;2023-04-03T09:11:13;102954.25;;;12.43;51.69
74615;BME280;63121;51.458;-0.110;2023-04-03T09:13:53;102949.69;;;12.28;52.31
74615;BME280;63121;51.458;-0.110;2023-04-03T09:19:34;102943.34;;;11.27;55.12
74615;BME280;63121;51.458;-0.110;2023-04-03T09:22:20;102945.25;;;11.78;53.96
74615;BME280;63121;51.458;-0.110;2023-04-03T09:24:50;102943.53;;;12.21;52.45
74615;BME280;63121;51.458;-0.110;2023-04-03T09:27:17;102948.31;;;12.50;51.79
74615;BME280;63121;51.458;-0.110;2023-04-03T09:29:44;102940.09;;;12.22;52.12
74615;BME280;63121;51.458;-0.110;2023-04-03T09:32:33;102932.19;;;12.66;51.13
74615;BME280;63121;51.458;-0.110;2023-04-03T09:35:03;102942.22;;;12.99;49.91
74615;BME280;63121;51.458;-0.110;2023-04-03T09:37:37;102937.94;;;13.05;50.28
74615;BME280;63121;51.458;-0.110;2023-04-03T09:40:04;102934.19;;;13.44;49.86
74615;BME280;63121;51.458;-0.110;2023-04-03T09:42:31;102930.28;;;13.78;48.85
74615;BME280;63121;51.458;-0.110;2023-04-03T09:45:05;102931.06;;;13.07;49.75
74615;BME280;63121;51.458;-0.110;2023-04-03T09:47:35;102932.00;;;13.10;49.61
74615;BME280;63121;51.458;-0.110;2023-04-03T09:52:50;102929.72;;;13.30;49.32
74615;BME280;63121;51.458;-0.110;2023-04-03T09:55:21;102926.09;;;13.20;49.19
74615;BME280;63121;51.458;-0.110;2023-04-03T09:57:53;102929.56;;;13.22;49.18
74615;BME280;63121;51.458;-0.110;2023-04-03T10:03:01;102932.03;;;13.82;47.93
74615;BME280;63121;51.458;-0.110;2023-04-03T10:05:39;102936.63;;;14.05;47.45
74615;BME280;63121;51.458;-0.110;2023-04-03T10:10:36;102929.56;;;14.91;44.31
74615;BME280;63121;51.458;-0.110;2023-04-03T10:13:13;102921.59;;;14.69;43.58
74615;BME280;63121;51.458;-0.110;2023-04-03T10:15:44;102923.81;;;14.26;44.65
74615;BME280;63121;51.458;-0.110;2023-04-03T10:20:57;102926.44;;;14.29;44.41
74615;BME280;63121;51.458;-0.110;2023-04-03T10:23:43;102927.38;;;14.37;45.28
74615;BME280;63121;51.458;-0.110;2023-04-03T10:29:43;102925.94;;;14.69;42.06
74615;BME280;63121;51.458;-0.110;2023-04-03T10:34:45;102930.22;;;14.65;42.12
74615;BME280;63121;51.458;-0.110;2023-04-03T10:40:22;102930.06;;;14.47;42.11
74615;BME280;63121;51.458;-0.110;2023-04-03T10:45:56;102926.59;;;13.59;43.41
74615;BME280;63121;51.458;-0.110;2023-04-03T10:54:11;102921.31;;;14.35;42.44
74615;BME280;63121;51.458;-0.110;2023-04-03T10:57:02;102918.41;;;14.00;42.81
74615;BME280;63121;51.458;-0.110;2023-04-03T10:59:33;102917.63;;;14.12;42.59
74615;BME280;63121;51.458;-0.110;2023-04-03T11:02:48;102914.63;;;14.62;41.54
74615;BME280;63121;51.458;-0.110;2023-04-03T11:04:47;102918.63;;;14.26;41.66
74615;BME280;63121;51.458;-0.110;2023-04-03T11:07:33;102907.44;;;14.32;41.47
74615;BME280;63121;51.458;-0.110;2023-04-03T11:10:26;102914.22;;;14.16;41.98
74615;BME280;63121;51.458;-0.110;2023-04-03T11:13:02;102907.31;;;14.19;41.69
74615;BME280;63121;51.458;-0.110;2023-04-03T11:15:35;102914.47;;;14.48;41.17
74615;BME280;63121;51.458;-0.110;2023-04-03T11:18:21;102907.03;;;14.94;40.46
74615;BME280;63121;51.458;-0.110;2023-04-03T11:21:03;102910.56;;;15.04;39.54
74615;BME280;63121;51.458;-0.110;2023-04-03T11:23:35;102899.78;;;14.52;40.00
74615;BME280;63121;51.458;-0.110;2023-04-03T11:26:27;102901.47;;;14.48;39.70
74615;BME280;63121;51.458;-0.110;2023-04-03T11:29:00;102901.31;;;14.23;40.96
74615;BME280;63121;51.458;-0.110;2023-04-03T11:37:03;102898.25;;;14.77;39.68
74615;BME280;63121;51.458;-0.110;2023-04-03T11:39:33;102894.34;;;14.22;39.73
74615;BME280;63121;51.458;-0.110;2023-04-03T11:42:33;102888.63;;;14.59;39.96
74615;BME280;63121;51.458;-0.110;2023-04-03T11:47:55;102882.47;;;14.54;39.00
74615;BME280;63121;51.458;-0.110;2023-04-03T11:53:29;102881.38;;;14.21;39.38
74615;BME280;63121;51.458;-0.110;2023-04-03T11:56:04;102882.53;;;14.57;38.62
74615;BME280;63121;51.458;-0.110;2023-04-03T11:58:34;102871.41;;;14.81;38.10
74615;BME280;63121;51.458;-0.110;2023-04-03T12:01:10;102866.84;;;14.52;38.79
74615;BME280;63121;51.458;-0.110;2023-04-03T12:11:19;102861.16;;;15.10;37.78
74615;BME280;63121;51.458;-0.110;2023-04-03T12:21:16;102852.97;;;14.47;38.83
74615;BME280;63121;51.458;-0.110;2023-04-03T12:26:48;102841.22;;;15.06;37.75
74615;BME280;63121;51.458;-0.110;2023-04-03T12:46:58;102836.44;;;14.34;37.75
74615;BME280;63121;51.458;-0.110;2023-04-03T12:54:46;102832.16;;;14.44;38.12
74615;BME280;63121;51.458;-0.110;2023-04-03T12:57:25;102825.94;;;14.22;38.11
74615;BME280;63121;51.458;-0.110;2023-04-03T12:59:51;102817.38;;;14.32;37.65
74615;BME280;63121;51.458;-0.110;2023-04-03T13:05:05;102822.41;;;14.11;36.97
74615;BME280;63121;51.458;-0.110;2023-04-03T13:07:34;102808.59;;;14.18;37.27
74615;BME280;63121;51.458;-0.110;2023-04-03T13:12:33;102812.94;;;14.17;37.00
74615;BME280;63121;51.458;-0.110;2023-04-03T13:15:30;102814.78;;;14.32;36.51
74615;BME280;63121;51.458;-0.110;2023-04-03T13:17:58;102810.97;;;13.87;36.58
74615;BME280;63121;51.458;-0.110;2023-04-03T13:20:27;102817.69;;;14.81;35.97
74615;BME280;63121;51.458;-0.110;2023-04-03T13:25:29;102817.56;;;14.63;35.93
74615;BME280;63121;51.458;-0.110;2023-04-03T13:27:58;102814.19;;;14.76;35.88
74615;BME280;63121;51.458;-0.110;2023-04-03T13:30:33;102803.00;;;14.94;35.65
74615;BME280;63121;51.458;-0.110;2023-04-03T13:33:21;102800.28;;;14.63;35.45
74615;BME280;63121;51.458;-0.110;2023-04-03T13:35:47;102793.97;;;14.32;35.93
74615;BME280;63121;51.458;-0.110;2023-04-03T13:40:53;102788.22;;;14.86;33.84
74615;BME280;63121;51.458;-0.110;2023-04-03T13:43:25;102792.41;;;14.56;34.71
74615;BME280;63121;51.458;-0.110;2023-04-03T13:48:23;102778.88;;;15.49;32.27
74615;BME280;63121;51.458;-0.110;2023-04-03T13:51:05;102790.19;;;16.40;30.89
74615;BME280;63121;51.458;-0.110;2023-04-03T13:53:32;102777.78;;;17.10;29.19
74615;BME280;63121;51.458;-0.110;2023-04-03T13:58:30;102777.19;;;17.96;28.42
74615;BME280;63121;51.458;-0.110;2023-04-03T14:01:17;102763.94;;;18.16;27.41
74615;BME280;63121;51.458;-0.110;2023-04-03T14:03:46;102772.84;;;17.98;27.56
74615;BME280;63121;51.458;-0.110;2023-04-03T14:06:14;102778.94;;;18.76;27.09
74615;BME280;63121;51.458;-0.110;2023-04-03T14:08:41;102772.41;;;19.11;26.32
74615;BME280;63121;51.458;-0.110;2023-04-03T14:11:13;102768.50;;;20.42;23.69
74615;BME280;63121;51.458;-0.110;2023-04-03T14:13:48;102776.66;;;19.79;23.51
74615;BME280;63121;51.458;-0.110;2023-04-03T14:16:26;102781.16;;;21.09;23.63
74615;BME280;63121;51.458;-0.110;2023-04-03T14:18:52;102758.25;;;20.75;23.76
74615;BME280;63121;51.458;-0.110;2023-04-03T14:21:19;102764.28;;;19.87;24.52
74615;BME280;63121;51.458;-0.110;2023-04-03T14:23:45;102755.78;;;20.22;23.84
74615;BME280;63121;51.458;-0.110;2023-04-03T14:26:16;102755.56;;;20.33;24.11
74615;BME280;63121;51.458;-0.110;2023-04-03T14:28:44;102761.50;;;20.43;24.78
74615;BME280;63121;51.458;-0.110;2023-04-03T14:31:16;102749.13;;;21.30;23.88
74615;BME280;63121;51.458;-0.110;2023-04-03T14:33:43;102747.84;;;22.16;23.29
74615;BME280;63121;51.458;-0.110;2023-04-03T14:38:38;102757.28;;;21.57;23.65
74615;BME280;63121;51.458;-0.110;2023-04-03T14:41:04;102753.44;;;21.70;23.39
74615;BME280;63121;51.458;-0.110;2023-04-03T14:43:29;102746.50;;;22.65;22.47
74615;BME280;63121;51.458;-0.110;2023-04-03T14:45:55;102742.97;;;22.02;23.53
74615;BME280;63121;51.458;-0.110;2023-04-03T14:48:24;102746.34;;;22.07;23.34